createdAt,value
2018-07-24T09:13:59.522Z,1100.00
2018-07-24T09:14:59.365Z,1132.00
2018-07-24T09:15:59.592Z,1100.00
2018-07-24T09:16:59.366Z,1124.00
2018-07-24T09:17:59.282Z,1168.00
2018-07-24T09:18:59.256Z,1176.00
2018-07-24T09:19:59.194Z,1184.00
2018-07-24T09:20:59.375Z,1112.00
2018-07-24T09:21:59.158Z,1044.00
2018-07-24T09:22:59.123Z,1116.00
2018-07-24T09:23:59.108Z,1096.00
2018-07-24T09:24:59.270Z,1120.00
2018-07-24T09:25:58.982Z,1120.00
2018-07-24T09:26:58.884Z,1096.00
2018-07-24T09:27:58.818Z,1124.00
2018-07-24T09:28:58.774Z,1100.00
2018-07-24T09:29:58.732Z,1080.00
2018-07-24T09:30:58.723Z,1068.00
2018-07-24T09:31:58.607Z,1140.00
2018-07-24T09:32:58.548Z,1128.00
2018-07-24T09:33:58.510Z,1044.00
2018-07-24T09:34:58.451Z,1080.00
2018-07-24T09:35:58.660Z,1060.00
2018-07-24T09:36:58.324Z,1092.00
2018-07-24T09:37:58.260Z,1076.00
2018-07-24T09:38:58.201Z,1108.00
2018-07-24T09:39:58.169Z,1084.00
2018-07-24T09:40:58.147Z,1100.00
2018-07-24T09:41:58.037Z,1064.00
2018-07-24T09:42:57.961Z,1112.00
2018-07-24T09:43:57.891Z,1128.00
2018-07-24T09:44:57.831Z,1064.00
2018-07-24T09:45:57.852Z,1088.00
2018-07-24T09:46:58.011Z,1084.00
2018-07-24T09:47:57.628Z,1084.00
2018-07-24T09:48:57.556Z,824.00
2018-07-24T09:49:57.484Z,968.00
2018-07-24T09:50:57.482Z,984.00
2018-07-24T09:51:57.344Z,1060.00
2018-07-24T09:52:57.272Z,1068.00
2018-07-24T09:53:58.941Z,952.00
2018-07-24T09:54:57.117Z,948.00
2018-07-24T09:55:57.112Z,952.00
2018-07-24T09:56:56.974Z,968.00
2018-07-24T09:57:56.896Z,964.00
2018-07-24T09:58:56.820Z,988.00
2018-07-24T09:59:56.745Z,972.00
2018-07-24T10:00:56.768Z,992.00
2018-07-24T10:01:56.600Z,976.00
2018-07-24T10:02:56.523Z,988.00
2018-07-24T10:03:56.448Z,992.00
2018-07-24T10:04:56.373Z,992.00
2018-07-24T10:05:56.297Z,960.00
2018-07-24T10:06:56.319Z,988.00
2018-07-24T10:07:56.156Z,1036.00
2018-07-24T10:08:56.079Z,1012.00
2018-07-24T10:09:56.019Z,1012.00
2018-07-24T10:10:55.951Z,1008.00
2018-07-24T10:11:55.911Z,1024.00
2018-07-24T10:12:55.872Z,1072.00
2018-07-24T10:13:55.700Z,1132.00
2018-07-24T10:14:55.630Z,1112.00
2018-07-24T10:15:55.555Z,1144.00
2018-07-24T10:16:55.543Z,1132.00
2018-07-24T10:17:55.396Z,1152.00
2018-07-24T10:18:55.394Z,1120.00
2018-07-24T10:19:55.244Z,1116.00
2018-07-24T10:20:55.161Z,1156.00
2018-07-24T10:21:55.138Z,1132.00
2018-07-24T10:22:55.001Z,1160.00
2018-07-24T10:23:54.928Z,1084.00
2018-07-24T10:24:54.838Z,1092.00
2018-07-24T10:25:54.771Z,1084.00
2018-07-24T10:26:54.984Z,1192.00
2018-07-24T10:27:54.612Z,1108.00
2018-07-24T10:28:54.518Z,1156.00
2018-07-24T10:29:54.466Z,1164.00
2018-07-24T10:30:54.346Z,1164.00
2018-07-24T10:31:54.317Z,1136.00
2018-07-24T10:32:54.207Z,1084.00
2018-07-24T10:33:54.259Z,1168.00
2018-07-24T10:34:54.054Z,996.00
2018-07-24T10:35:53.926Z,1200.00
2018-07-24T10:36:54.037Z,1180.00
2018-07-24T10:37:53.745Z,1204.00
2018-07-24T10:38:53.740Z,1204.00
2018-07-24T10:39:53.764Z,1216.00
2018-07-24T10:40:53.605Z,1212.00
2018-07-24T10:41:53.552Z,1220.00
2018-07-24T10:42:53.410Z,1232.00
2018-07-24T10:43:53.333Z,1224.00
2018-07-24T10:44:53.257Z,1184.00
2018-07-24T10:45:53.186Z,1264.00
2018-07-24T10:46:53.157Z,1260.00
2018-07-24T10:47:53.039Z,1304.00
2018-07-24T10:48:52.942Z,1304.00
2018-07-24T10:49:52.861Z,1336.00
2018-07-24T10:50:52.786Z,1328.00
2018-07-24T10:51:52.786Z,1312.00
2018-07-24T10:52:52.620Z,1328.00
2018-07-24T10:53:52.607Z,1328.00
2018-07-24T10:54:52.550Z,1332.00
2018-07-24T10:55:52.452Z,1348.00
2018-07-24T10:56:52.436Z,1328.00
2018-07-24T10:57:52.303Z,1324.00
2018-07-24T10:58:52.241Z,1336.00
2018-07-24T10:59:52.161Z,1360.00
2018-07-24T11:00:52.111Z,1356.00
2018-07-24T11:01:52.064Z,1368.00
2018-07-24T11:02:51.930Z,1344.00
2018-07-24T11:03:51.834Z,1332.00
2018-07-24T11:04:52.508Z,1328.00
2018-07-24T11:05:51.671Z,1320.00
2018-07-24T11:06:51.652Z,1364.00
2018-07-24T11:07:51.607Z,1364.00
2018-07-24T11:08:51.458Z,1360.00
2018-07-24T11:09:51.346Z,1280.00
2018-07-24T11:10:51.293Z,1356.00
2018-07-24T11:11:51.206Z,1344.00
2018-07-24T11:12:51.181Z,1332.00
2018-07-24T11:13:51.053Z,1372.00
2018-07-24T11:14:50.965Z,1332.00
2018-07-24T11:15:50.888Z,1352.00
2018-07-24T11:16:51.250Z,1324.00
2018-07-24T11:17:50.857Z,1352.00
2018-07-24T11:18:50.672Z,1360.00
2018-07-24T11:19:50.613Z,1380.00
2018-07-24T11:20:50.515Z,1356.00
2018-07-24T11:21:50.467Z,1372.00
2018-07-24T11:22:50.660Z,1388.00
2018-07-24T11:23:50.293Z,1376.00
2018-07-24T11:24:50.205Z,1404.00
2018-07-24T11:25:50.144Z,1388.00
2018-07-24T11:26:50.060Z,1412.00
2018-07-24T11:27:50.043Z,1384.00
2018-07-24T11:28:49.933Z,1404.00
2018-07-24T11:29:49.819Z,1428.00
2018-07-24T11:30:49.752Z,1424.00
2018-07-24T11:31:49.650Z,1428.00
2018-07-24T11:32:49.733Z,1312.00
2018-07-24T11:33:49.487Z,1428.00
2018-07-24T11:34:49.450Z,1432.00
2018-07-24T11:35:49.440Z,1404.00
2018-07-24T11:36:49.317Z,1376.00
2018-07-24T11:37:49.235Z,1436.00
2018-07-24T11:38:49.078Z,1356.00
2018-07-24T11:39:49.030Z,1388.00
2018-07-24T11:40:49.551Z,1348.00
2018-07-24T11:41:48.829Z,1420.00
2018-07-24T11:42:48.884Z,1080.00
2018-07-24T11:43:48.710Z,1084.00
2018-07-24T11:44:48.584Z,1000.00
2018-07-24T11:45:48.500Z,1088.00
2018-07-24T11:46:48.429Z,1060.00
2018-07-24T11:47:48.426Z,1012.00
2018-07-24T11:48:48.255Z,1064.00
2018-07-24T11:49:48.170Z,1052.00
2018-07-24T11:50:48.078Z,1028.00
2018-07-24T11:51:48.028Z,1072.00
2018-07-24T11:52:47.989Z,1072.00
2018-07-24T11:53:47.834Z,1108.00
2018-07-24T11:54:47.745Z,1124.00
2018-07-24T11:55:47.651Z,1148.00
2018-07-24T11:56:47.560Z,1152.00
2018-07-24T11:57:47.595Z,1164.00
2018-07-24T11:58:47.438Z,1152.00
2018-07-24T11:59:47.296Z,1168.00
2018-07-24T12:00:47.189Z,1136.00
2018-07-24T12:01:47.120Z,1148.00
2018-07-24T12:02:47.063Z,1188.00
2018-07-24T12:03:46.924Z,1184.00
2018-07-24T12:04:46.843Z,1456.00
2018-07-24T12:05:46.717Z,1448.00
2018-07-24T12:06:46.629Z,1440.00
2018-07-24T12:07:46.676Z,1444.00
2018-07-24T12:08:46.444Z,1440.00
2018-07-24T12:09:46.347Z,1436.00
2018-07-24T12:10:46.247Z,1484.00
2018-07-24T12:11:46.154Z,1452.00
2018-07-24T12:12:46.136Z,1448.00
2018-07-24T12:13:45.967Z,1396.00
2018-07-24T12:14:45.915Z,1404.00
2018-07-24T12:15:45.774Z,1372.00
2018-07-24T12:16:45.679Z,1372.00
2018-07-24T12:17:45.643Z,1372.00
2018-07-24T12:18:45.485Z,1316.00
2018-07-24T12:19:45.383Z,1384.00
2018-07-24T12:20:45.289Z,1352.00
2018-07-24T12:21:45.212Z,1376.00
2018-07-24T12:22:45.178Z,1388.00
2018-07-24T12:23:45.004Z,1380.00
2018-07-24T12:24:44.910Z,1348.00
2018-07-24T12:25:44.819Z,1372.00
2018-07-24T12:26:44.728Z,1376.00
2018-07-24T12:27:44.640Z,1332.00
2018-07-24T12:28:44.604Z,1364.00
2018-07-24T12:29:44.445Z,1376.00
2018-07-24T12:30:44.349Z,1368.00
2018-07-24T12:31:44.248Z,1376.00
2018-07-24T12:32:44.150Z,1360.00
2018-07-24T12:33:44.112Z,1364.00
2018-07-24T12:34:43.959Z,1356.00
2018-07-24T12:35:43.906Z,1368.00
2018-07-24T12:36:43.771Z,1352.00
2018-07-24T12:37:43.675Z,1344.00
2018-07-24T12:38:43.642Z,1316.00
2018-07-24T12:39:43.485Z,1340.00
2018-07-24T12:40:43.388Z,1328.00
2018-07-24T12:41:43.293Z,1220.00
2018-07-24T12:42:43.201Z,1252.00
2018-07-24T12:43:43.240Z,1348.00
2018-07-24T12:44:43.006Z,1352.00
2018-07-24T12:45:42.914Z,1252.00
2018-07-24T12:46:42.812Z,1232.00
2018-07-24T12:47:42.731Z,1268.00
2018-07-24T12:48:42.828Z,1332.00
2018-07-24T12:49:42.599Z,1352.00
2018-07-24T12:50:42.450Z,1344.00
2018-07-24T12:51:42.344Z,1328.00
2018-07-24T12:52:42.245Z,1344.00
2018-07-24T12:53:42.216Z,1364.00
2018-07-24T12:54:42.061Z,1344.00
2018-07-24T12:55:41.984Z,1368.00
2018-07-24T12:56:41.873Z,1404.00
2018-07-24T12:57:41.779Z,1368.00
2018-07-24T12:58:41.754Z,1496.00
2018-07-24T12:59:41.600Z,1404.00
2018-07-24T13:00:41.503Z,1408.00
2018-07-24T13:01:41.424Z,1348.00
2018-07-24T13:02:41.383Z,1416.00
2018-07-24T13:03:41.339Z,1352.00
2018-07-24T13:04:41.183Z,1128.00
2018-07-24T13:05:41.138Z,1296.00
2018-07-24T13:06:41.051Z,1388.00
2018-07-24T13:07:40.932Z,1396.00
2018-07-24T13:08:40.898Z,1404.00
2018-07-24T13:09:40.715Z,1400.00
2018-07-24T13:10:40.612Z,1296.00
2018-07-24T13:11:40.507Z,1360.00
2018-07-24T13:12:40.415Z,1352.00
2018-07-24T13:13:40.371Z,1376.00
2018-07-24T13:14:40.199Z,1388.00
2018-07-24T13:15:40.095Z,1308.00
2018-07-24T13:16:40.007Z,1300.00
2018-07-24T13:17:39.878Z,1400.00
2018-07-24T13:18:39.860Z,1384.00
2018-07-24T13:19:39.736Z,1348.00
2018-07-24T13:20:39.564Z,1380.00
2018-07-24T13:21:39.457Z,1400.00
2018-07-24T13:22:39.361Z,1352.00
2018-07-24T13:23:39.257Z,1316.00
2018-07-24T13:24:39.281Z,1360.00
2018-07-24T13:25:39.035Z,1400.00
2018-07-24T13:26:38.929Z,1400.00
2018-07-24T13:27:38.820Z,1408.00
2018-07-24T13:28:38.718Z,1424.00
2018-07-24T13:29:38.676Z,1420.00
2018-07-24T13:30:38.500Z,1408.00
2018-07-24T13:31:38.448Z,1368.00
2018-07-24T13:32:38.282Z,1404.00
2018-07-24T13:33:38.169Z,1324.00
2018-07-24T13:34:38.105Z,1404.00
2018-07-24T13:35:37.934Z,1472.00
2018-07-24T13:36:37.823Z,1424.00
2018-07-24T13:37:37.969Z,1460.00
2018-07-24T13:38:37.601Z,1516.00
2018-07-24T13:39:37.550Z,1508.00
2018-07-24T13:40:37.358Z,1492.00
2018-07-24T13:41:37.244Z,1324.00
2018-07-24T13:42:37.139Z,1532.00
2018-07-24T13:43:37.106Z,1508.00
2018-07-24T13:44:36.953Z,1492.00
2018-07-24T13:45:36.773Z,1480.00
2018-07-24T13:46:36.654Z,1464.00
2018-07-24T13:47:36.534Z,1476.00
2018-07-24T13:48:36.533Z,1500.00
2018-07-24T13:49:36.379Z,1492.00
2018-07-24T13:50:36.322Z,1412.00
2018-07-24T13:51:36.070Z,1496.00
2018-07-24T13:52:35.942Z,1484.00
2018-07-24T13:53:35.827Z,1504.00
2018-07-24T13:54:35.770Z,1492.00
2018-07-24T13:55:35.604Z,1488.00
2018-07-24T13:56:35.473Z,1484.00
2018-07-24T13:57:35.336Z,1500.00
2018-07-24T13:58:35.244Z,1500.00
2018-07-24T13:59:35.164Z,1504.00
2018-07-24T14:00:35.030Z,1492.00
2018-07-24T14:01:34.850Z,1476.00
2018-07-24T14:02:34.743Z,1432.00
2018-07-24T14:03:34.608Z,1484.00
2018-07-24T14:04:34.614Z,1332.00
2018-07-24T14:05:34.414Z,1348.00
2018-07-24T14:06:34.253Z,1340.00
2018-07-24T14:07:34.186Z,1340.00
2018-07-24T14:08:34.047Z,1328.00
2018-07-24T14:09:34.014Z,1332.00
2018-07-24T14:10:33.775Z,1336.00
2018-07-24T14:11:33.675Z,1332.00
2018-07-24T14:12:33.530Z,1336.00
2018-07-24T14:13:33.447Z,1340.00
2018-07-24T14:14:33.427Z,1356.00
2018-07-24T14:15:33.155Z,1344.00
2018-07-24T14:16:33.044Z,1340.00
2018-07-24T14:17:32.951Z,1336.00
2018-07-24T14:18:32.792Z,1344.00
2018-07-24T14:19:32.736Z,1340.00
2018-07-24T14:20:32.560Z,1352.00
2018-07-24T14:21:32.470Z,1496.00
2018-07-24T14:22:32.317Z,1492.00
2018-07-24T14:23:32.229Z,1488.00
2018-07-24T14:24:32.067Z,1476.00
2018-07-24T14:25:32.014Z,1432.00
2018-07-24T14:26:31.816Z,1356.00
2018-07-24T14:27:31.702Z,1332.00
2018-07-24T14:28:31.571Z,1384.00
2018-07-24T14:29:31.465Z,1316.00
2018-07-24T14:30:31.399Z,1376.00
2018-07-24T14:31:31.197Z,1372.00
2018-07-24T14:32:31.073Z,1396.00
2018-07-24T14:33:30.961Z,1364.00
2018-07-24T14:34:30.839Z,1392.00
2018-07-24T14:35:30.779Z,1388.00
2018-07-24T14:36:30.598Z,1308.00
2018-07-24T14:37:30.487Z,1288.00
2018-07-24T14:38:30.360Z,1352.00
2018-07-24T14:39:30.234Z,1288.00
2018-07-24T14:40:30.232Z,1368.00
2018-07-24T14:41:30.015Z,1388.00
2018-07-24T14:42:29.868Z,1376.00
2018-07-24T14:43:29.750Z,1376.00
2018-07-24T14:44:29.622Z,1344.00
2018-07-24T14:45:29.554Z,1360.00
2018-07-24T14:46:29.444Z,1372.00
2018-07-24T14:47:29.243Z,1372.00
2018-07-24T14:48:29.117Z,1384.00
2018-07-24T14:49:29.032Z,1384.00
2018-07-24T14:50:28.946Z,1396.00
2018-07-24T14:51:28.763Z,1384.00
2018-07-24T14:52:28.650Z,1400.00
2018-07-24T14:53:28.530Z,1432.00
2018-07-24T14:54:28.415Z,1184.00
2018-07-24T14:55:28.340Z,1384.00
2018-07-24T14:56:28.164Z,1340.00
2018-07-24T14:57:28.130Z,1368.00
2018-07-24T14:58:27.936Z,1416.00
2018-07-24T14:59:27.798Z,1420.00
2018-07-24T15:00:27.743Z,1432.00
2018-07-24T15:01:27.553Z,1444.00
2018-07-24T15:02:27.428Z,1432.00
2018-07-24T15:03:27.301Z,1432.00
2018-07-24T15:04:27.176Z,1388.00
2018-07-24T15:05:27.175Z,1296.00
2018-07-24T15:06:26.985Z,1408.00
2018-07-24T15:07:26.811Z,1396.00
2018-07-24T15:08:26.695Z,1388.00
2018-07-24T15:09:26.560Z,1404.00
2018-07-24T15:10:26.502Z,1552.00
2018-07-24T15:11:26.321Z,1540.00
2018-07-24T15:12:26.210Z,1504.00
2018-07-24T15:13:26.072Z,1532.00
2018-07-24T15:14:26.028Z,1532.00
2018-07-24T15:15:25.902Z,1436.00
2018-07-24T15:16:25.702Z,1484.00
2018-07-24T15:17:25.702Z,1456.00
2018-07-24T15:18:25.446Z,1480.00
2018-07-24T15:19:25.345Z,1468.00
2018-07-24T15:20:25.196Z,1448.00
2018-07-24T15:21:25.158Z,1480.00
2018-07-24T15:22:24.948Z,1484.00
2018-07-24T15:23:24.897Z,1448.00
2018-07-24T15:24:24.762Z,1328.00
2018-07-24T15:25:24.576Z,1380.00
2018-07-24T15:26:24.522Z,1372.00
2018-07-24T15:27:24.321Z,1420.00
2018-07-24T15:28:24.199Z,1412.00
2018-07-24T15:29:24.085Z,1408.00
2018-07-24T15:30:23.946Z,1352.00
2018-07-24T15:31:23.884Z,1332.00
2018-07-24T15:32:23.691Z,1316.00
2018-07-24T15:33:23.570Z,1264.00
2018-07-24T15:34:23.671Z,1288.00
2018-07-24T15:35:23.375Z,1340.00
2018-07-24T15:36:23.380Z,1368.00
2018-07-24T15:37:23.126Z,1388.00
2018-07-24T15:38:23.017Z,1384.00
2018-07-24T15:39:22.892Z,1368.00
2018-07-24T15:40:22.689Z,1408.00
2018-07-24T15:41:22.700Z,1420.00
2018-07-24T15:42:22.448Z,1412.00
2018-07-24T15:43:22.306Z,1460.00
2018-07-24T15:44:22.204Z,1480.00
2018-07-24T15:45:22.057Z,1480.00
2018-07-24T15:46:21.994Z,1476.00
2018-07-24T15:47:21.799Z,1268.00
2018-07-24T15:48:21.717Z,1492.00
2018-07-24T15:49:21.538Z,1492.00
2018-07-24T15:50:21.442Z,1500.00
2018-07-24T15:51:21.437Z,1480.00
2018-07-24T15:52:21.194Z,1496.00
2018-07-24T15:53:21.092Z,1500.00
2018-07-24T15:54:20.956Z,1504.00
